Accueil
METAR-TAF:

METAR-TAF

Aéroports :

Seyresse

Dax, France

latitude: 43-41N, longitude: 001-04W, altitude: 32 m

Observation

Le bulletin a été fait il y a 26 minutes, à 04:30 UTC
Vent 2 kt de direction variable
Température 2°C
Humidité 93%
Pression 1026 hPa
Visibilité: 7000 m

METAR: LFBY 160430Z AUTO VRB02KT 7000 // ////// 02/01 Q1026

Heure: 05:56 (04:56 UTC)

Prévision

Le bulletin a été fait il y a 20 heures et 56 minutes, à 08:00 UTC
Prévision valable du 15 à 09 UTC au 15 à 18 UTC
Vent 4 kt de est/nord-est
Visibilité: 1500 m
Nuages fragmentés à une hauteur de 100 ft
brume
Evoluant progressivement
du 15 à 09 UTC au 15 à 12 UTC
Visibilité 10 km ou plus
pas de nuages en-dessous de 1500 mètres et pas de cumulonimbus.

TAF: LFBY 150800Z 1509/1518 06004KT 1500 BR BKN001 BECMG 1509/1512 CAVOK

Observations et prévisions météorologiques de plus de 4000 aéroports (messages METAR et TAF).

Les stations disponibles sont représentées par des disques jaunes et rouges sur la carte.

Passer la souris dessus pour voir le nom de la station.

Cliquer dessus pour voir les observations et prévisions météorologiques.

Pour changer de carte: cliquez sur les boutons verts avec une croix noire pour zoomer, sur le bouton vert avec un tiret pour effectuer un zoom arrière, ou sur les flèches vertes pour les cartes adjacentes.


METAR-TAF: